createdAt,value
2018-05-12T00:01:57.218Z,8.63
2018-05-12T00:04:24.692Z,8.52
2018-05-12T00:06:51.076Z,8.54
2018-05-12T00:09:17.555Z,8.52
2018-05-12T00:11:44.000Z,8.54
2018-05-12T00:14:10.412Z,8.46
2018-05-12T00:16:36.780Z,8.36
2018-05-12T00:19:03.284Z,8.41
2018-05-12T00:21:29.706Z,8.45
2018-05-12T00:23:56.026Z,8.44
2018-05-12T00:26:22.443Z,8.32
2018-05-12T00:28:49.935Z,8.41
2018-05-12T00:31:16.290Z,8.39
2018-05-12T00:33:42.900Z,8.38
2018-05-12T00:36:09.348Z,8.31
2018-05-12T00:38:35.891Z,8.34
2018-05-12T00:41:02.407Z,8.33
2018-05-12T00:43:28.835Z,8.30
2018-05-12T00:45:55.530Z,8.23
2018-05-12T00:48:26.055Z,8.17
2018-05-12T00:50:52.835Z,8.17
2018-05-12T00:53:19.386Z,8.16
2018-05-12T00:55:46.175Z,8.14
2018-05-12T00:58:12.716Z,8.15
2018-05-12T01:00:39.040Z,8.15
2018-05-12T01:03:05.457Z,8.16
2018-05-12T01:05:31.880Z,8.14
2018-05-12T01:07:58.302Z,8.04
2018-05-12T01:10:24.826Z,8.05
2018-05-12T01:12:51.323Z,8.07
2018-05-12T01:15:17.682Z,8.03
2018-05-12T01:17:44.788Z,7.89
2018-05-12T01:20:11.254Z,7.87
2018-05-12T01:22:37.576Z,7.90
2018-05-12T01:25:03.975Z,7.87
2018-05-12T01:27:30.329Z,7.85
2018-05-12T01:29:57.386Z,7.84
2018-05-12T01:32:23.847Z,7.97
2018-05-12T01:34:50.205Z,7.97
2018-05-12T01:37:16.610Z,7.92
2018-05-12T01:39:43.067Z,7.89
2018-05-12T01:42:09.436Z,7.97
2018-05-12T01:44:35.838Z,8.03
2018-05-12T01:47:02.233Z,7.99
2018-05-12T01:49:28.640Z,7.87
2018-05-12T01:51:55.041Z,7.89
2018-05-12T01:54:21.442Z,7.77
2018-05-12T01:56:47.853Z,7.67
2018-05-12T01:59:14.297Z,7.68
2018-05-12T02:01:40.780Z,7.60
2018-05-12T02:04:07.235Z,7.58
2018-05-12T02:06:33.555Z,7.53
2018-05-12T02:09:00.397Z,7.58
2018-05-12T02:11:26.818Z,7.62
2018-05-12T02:13:53.192Z,7.60
2018-05-12T02:16:19.677Z,7.68
2018-05-12T02:18:46.063Z,7.60
2018-05-12T02:21:12.487Z,7.57
2018-05-12T02:23:38.856Z,7.58
2018-05-12T02:26:05.212Z,7.52
2018-05-12T02:28:31.619Z,7.44
2018-05-12T02:30:58.007Z,7.42
2018-05-12T02:33:24.323Z,7.68
2018-05-12T02:35:50.672Z,7.62
2018-05-12T02:38:17.059Z,7.42
2018-05-12T02:40:43.372Z,7.39
2018-05-12T02:43:09.704Z,7.38
2018-05-12T02:45:36.189Z,7.47
2018-05-12T02:48:02.616Z,7.46
2018-05-12T02:50:29.089Z,7.57
2018-05-12T02:52:55.453Z,7.63
2018-05-12T02:55:21.799Z,7.68
2018-05-12T02:57:48.108Z,7.73
2018-05-12T03:00:15.563Z,7.70
2018-05-12T03:02:41.931Z,7.60
2018-05-12T03:05:08.256Z,7.49
2018-05-12T03:07:34.624Z,7.47
2018-05-12T03:10:01.005Z,7.47
2018-05-12T03:12:27.368Z,7.53
2018-05-12T03:14:53.734Z,7.55
2018-05-12T03:17:20.058Z,7.48
2018-05-12T03:19:46.397Z,7.43
2018-05-12T03:22:12.726Z,7.50
2018-05-12T03:24:39.332Z,7.63
2018-05-12T03:27:05.802Z,7.59
2018-05-12T03:29:32.185Z,7.61
2018-05-12T03:31:58.504Z,7.63
2018-05-12T03:34:24.852Z,7.67
2018-05-12T03:36:51.213Z,7.64
2018-05-12T03:39:17.594Z,7.73
2018-05-12T03:41:43.925Z,8.02
2018-05-12T03:44:10.298Z,7.92
2018-05-12T03:46:37.007Z,7.92
2018-05-12T03:49:03.511Z,8.03
2018-05-12T03:51:29.927Z,8.08
2018-05-12T03:53:56.399Z,8.27
2018-05-12T03:56:22.761Z,8.54
2018-05-12T03:58:49.303Z,8.12
2018-05-12T04:01:15.644Z,8.06
2018-05-12T04:03:42.492Z,8.06
2018-05-12T04:06:21.145Z,8.24
2018-05-12T04:08:59.815Z,8.24
2018-05-12T04:11:38.536Z,8.33
2018-05-12T04:14:04.858Z,8.40
2018-05-12T04:16:31.232Z,8.32
2018-05-12T04:18:57.650Z,8.17
2018-05-12T04:21:23.994Z,8.27
2018-05-12T04:23:50.368Z,8.32
2018-05-12T04:26:16.904Z,8.45
2018-05-12T04:28:43.617Z,8.55
2018-05-12T04:31:10.324Z,8.64
2018-05-12T04:33:36.942Z,8.83
2018-05-12T04:36:03.384Z,8.91
2018-05-12T04:38:30.009Z,9.04
2018-05-12T04:40:56.429Z,9.02
2018-05-12T04:43:22.836Z,8.84
2018-05-12T04:45:49.188Z,8.77
2018-05-12T04:48:15.642Z,8.68
2018-05-12T04:50:43.053Z,8.64
2018-05-12T04:53:10.592Z,8.55
2018-05-12T04:55:37.071Z,8.59
2018-05-12T04:58:03.598Z,8.63
2018-05-12T05:00:31.179Z,8.59
2018-05-12T05:02:57.711Z,8.64
2018-05-12T05:05:24.748Z,8.55
2018-05-12T05:07:51.533Z,8.55
2018-05-12T05:10:18.479Z,8.74
2018-05-12T05:12:45.196Z,8.86
2018-05-12T05:15:11.919Z,9.02
2018-05-12T05:17:38.542Z,9.09
2018-05-12T05:20:06.839Z,9.16
2018-05-12T05:22:33.941Z,9.25
2018-05-12T05:25:00.637Z,9.45
2018-05-12T05:27:27.108Z,9.48
2018-05-12T05:29:55.955Z,9.56
2018-05-12T05:32:23.085Z,9.88
2018-05-12T05:34:49.940Z,10.12
2018-05-12T05:37:16.858Z,10.35
2018-05-12T05:39:44.030Z,10.44
2018-05-12T05:42:11.057Z,10.74
2018-05-12T05:44:38.633Z,10.94
2018-05-12T05:47:05.626Z,11.00
2018-05-12T05:49:32.551Z,11.11
2018-05-12T05:51:59.200Z,11.58
2018-05-12T05:54:26.011Z,11.96
2018-05-12T05:56:52.442Z,12.25
2018-05-12T05:59:19.856Z,13.55
2018-05-12T06:01:46.563Z,14.54
2018-05-12T06:04:13.534Z,16.11
2018-05-12T06:06:40.552Z,15.94
2018-05-12T06:09:07.647Z,15.46
2018-05-12T06:11:35.062Z,15.51
2018-05-12T06:14:02.128Z,14.97
2018-05-12T06:16:28.712Z,14.62
2018-05-12T06:18:55.178Z,15.70
2018-05-12T06:21:21.532Z,15.75
2018-05-12T06:23:47.929Z,15.78
2018-05-12T06:26:14.328Z,15.60
2018-05-12T06:28:41.382Z,15.47
2018-05-12T06:31:10.909Z,15.43
2018-05-12T06:33:37.345Z,15.74
2018-05-12T06:36:04.642Z,15.87
2018-05-12T06:38:31.458Z,15.84
2018-05-12T06:40:58.914Z,16.35
2018-05-12T06:43:25.337Z,16.40
2018-05-12T06:45:52.696Z,16.32
2018-05-12T06:48:19.185Z,16.09
2018-05-12T06:50:49.883Z,16.82
2018-05-12T06:53:16.246Z,16.68
2018-05-12T06:55:42.607Z,16.89
2018-05-12T06:58:08.968Z,17.26
2018-05-12T07:00:38.339Z,16.96
2018-05-12T07:03:04.723Z,16.64
2018-05-12T07:05:31.081Z,16.63
2018-05-12T07:07:57.410Z,16.87
2018-05-12T07:10:24.935Z,17.13
2018-05-12T07:12:51.489Z,17.46
2018-05-12T07:15:17.899Z,18.03
2018-05-12T07:17:45.252Z,17.83
2018-05-12T07:20:13.703Z,18.11
2018-05-12T07:22:40.135Z,18.74
2018-05-12T07:25:06.587Z,18.49
2018-05-12T07:27:33.074Z,18.29
2018-05-12T07:29:59.655Z,18.39
2018-05-12T07:32:26.125Z,18.85
2018-05-12T07:34:52.660Z,18.61
2018-05-12T07:37:19.053Z,18.91
2018-05-12T07:39:46.888Z,19.00
2018-05-12T07:42:13.357Z,18.73
2018-05-12T07:44:39.801Z,18.98
2018-05-12T07:47:06.241Z,18.82
2018-05-12T07:49:32.759Z,18.45
2018-05-12T07:51:59.122Z,18.92
2018-05-12T07:54:25.543Z,19.48
2018-05-12T07:56:52.379Z,19.65
2018-05-12T07:59:19.530Z,19.66
2018-05-12T08:01:46.077Z,20.42
2018-05-12T08:04:13.099Z,19.96
2018-05-12T08:06:39.705Z,20.60
2018-05-12T08:09:06.660Z,20.30
2018-05-12T08:11:34.256Z,19.75
2018-05-12T08:14:01.143Z,20.55
2018-05-12T08:16:28.291Z,20.60
2018-05-12T08:18:55.531Z,21.08
2018-05-12T08:21:21.956Z,21.44
2018-05-12T08:23:48.810Z,21.52
2018-05-12T08:26:15.317Z,20.90
2018-05-12T08:28:41.684Z,21.45
2018-05-12T08:31:11.450Z,21.63
2018-05-12T08:33:38.593Z,21.74
2018-05-12T08:36:06.831Z,21.10
2018-05-12T08:38:33.958Z,20.98
2018-05-12T08:41:02.581Z,21.02
2018-05-12T08:43:31.480Z,21.68
2018-05-12T08:45:59.151Z,21.94
2018-05-12T08:48:26.054Z,22.10
2018-05-12T08:50:54.440Z,22.84
2018-05-12T08:53:21.020Z,22.44
2018-05-12T08:55:47.984Z,21.70
2018-05-12T08:58:14.488Z,22.00
2018-05-12T09:00:42.509Z,22.11
2018-05-12T09:03:09.482Z,22.15
2018-05-12T09:05:36.002Z,22.40
2018-05-12T09:08:02.587Z,22.70
2018-05-12T09:10:29.483Z,22.75
2018-05-12T09:12:56.072Z,22.34
2018-05-12T09:15:22.638Z,22.81
2018-05-12T09:17:49.246Z,23.23
2018-05-12T09:20:15.883Z,23.03
2018-05-12T09:22:42.692Z,23.63
2018-05-12T09:25:09.448Z,23.87
2018-05-12T09:27:36.296Z,24.30
2018-05-12T09:30:03.378Z,24.37
2018-05-12T09:32:30.637Z,24.83
2018-05-12T09:34:57.679Z,24.47
2018-05-12T09:37:26.445Z,24.00
2018-05-12T09:39:53.247Z,23.27
2018-05-12T09:42:20.509Z,23.31
2018-05-12T09:44:48.272Z,24.14
2018-05-12T09:47:15.021Z,23.94
2018-05-12T09:49:41.884Z,23.12
2018-05-12T09:52:09.078Z,23.06
2018-05-12T09:54:35.745Z,24.04
2018-05-12T09:57:02.335Z,24.08
2018-05-12T09:59:28.985Z,24.19
2018-05-12T10:01:55.457Z,23.66
2018-05-12T10:04:22.093Z,23.78
2018-05-12T10:06:48.718Z,23.68
2018-05-12T10:09:19.203Z,23.91
2018-05-12T10:11:45.684Z,23.71
2018-05-12T10:14:12.071Z,23.60
2018-05-12T10:16:38.468Z,23.29
2018-05-12T10:19:05.008Z,23.94
2018-05-12T10:21:32.008Z,24.79
2018-05-12T10:23:58.576Z,25.40
2018-05-12T10:26:26.520Z,25.33
2018-05-12T10:28:54.200Z,25.19
2018-05-12T10:31:23.041Z,25.48
2018-05-12T10:33:49.718Z,25.29
2018-05-12T10:36:16.415Z,25.25
2018-05-12T10:38:43.076Z,26.13
2018-05-12T10:41:09.738Z,26.84
2018-05-12T10:43:37.238Z,26.31
2018-05-12T10:46:04.949Z,25.75
2018-05-12T10:48:32.777Z,25.63
2018-05-12T10:50:59.866Z,25.52
2018-05-12T10:53:29.730Z,25.55
2018-05-12T10:55:57.642Z,25.19
2018-05-12T10:58:49.044Z,24.59
2018-05-12T11:01:20.158Z,23.92
2018-05-12T11:03:46.660Z,24.72
2018-05-12T11:06:13.037Z,25.27
2018-05-12T11:08:40.678Z,25.42
2018-05-12T11:11:07.420Z,25.32
2018-05-12T11:13:33.984Z,25.74
2018-05-12T11:16:01.072Z,25.97
2018-05-12T11:18:27.894Z,25.96
2018-05-12T11:21:00.922Z,25.83
2018-05-12T11:23:27.449Z,24.92
2018-05-12T11:25:53.930Z,25.44
2018-05-12T11:28:20.604Z,25.29
2018-05-12T11:30:47.430Z,25.31
2018-05-12T11:33:14.545Z,25.86
2018-05-12T11:35:42.296Z,26.02
2018-05-12T11:38:10.616Z,26.04
2018-05-12T11:40:40.206Z,26.34
2018-05-12T11:43:06.871Z,26.64
2018-05-12T11:45:34.164Z,26.87
2018-05-12T11:48:01.289Z,26.00
2018-05-12T11:50:28.715Z,25.75
2018-05-12T11:52:55.863Z,25.77
2018-05-12T11:55:22.874Z,25.61
2018-05-12T11:57:49.602Z,25.60
2018-05-12T12:00:17.158Z,25.87
2018-05-12T12:02:44.778Z,25.44
2018-05-12T12:05:11.865Z,25.52
2018-05-12T12:07:38.470Z,25.19
2018-05-12T12:10:04.996Z,25.02
2018-05-12T12:12:31.579Z,25.71
2018-05-12T12:14:58.674Z,26.04
2018-05-12T12:17:25.948Z,26.11
2018-05-12T12:19:53.597Z,26.50
2018-05-12T12:22:20.743Z,26.04
2018-05-12T12:24:47.511Z,25.63
2018-05-12T12:27:14.110Z,25.59
2018-05-12T12:29:42.113Z,25.34
2018-05-12T12:32:09.434Z,25.28
2018-05-12T12:34:36.988Z,24.25
2018-05-12T12:37:03.756Z,23.74
2018-05-12T12:39:31.054Z,24.80
2018-05-12T12:41:59.045Z,25.14
2018-05-12T12:44:25.597Z,24.46
2018-05-12T12:46:52.297Z,23.92
2018-05-12T12:49:18.904Z,23.46
2018-05-12T12:51:45.576Z,23.17
2018-05-12T12:54:12.599Z,23.19
2018-05-12T12:56:39.739Z,23.39
2018-05-12T12:59:06.334Z,23.21
2018-05-12T13:01:34.338Z,23.42
2018-05-12T13:04:01.615Z,23.70
2018-05-12T13:06:28.755Z,23.75
2018-05-12T13:08:55.430Z,23.60
2018-05-12T13:11:25.848Z,23.54
2018-05-12T13:13:53.690Z,23.17
2018-05-12T13:16:21.161Z,23.09
2018-05-12T13:18:48.240Z,23.04
2018-05-12T13:21:15.623Z,22.89
2018-05-12T13:23:43.238Z,22.51
2018-05-12T13:26:09.942Z,22.13
2018-05-12T13:28:36.512Z,21.49
2018-05-12T13:31:03.073Z,21.12
2018-05-12T13:33:29.912Z,20.64
2018-05-12T13:35:56.971Z,20.50
2018-05-12T13:38:23.864Z,20.39
2018-05-12T13:40:51.582Z,20.38
2018-05-12T13:43:19.178Z,20.42
2018-05-12T13:45:46.423Z,20.53
2018-05-12T13:48:13.076Z,20.56
2018-05-12T13:50:40.345Z,20.27
2018-05-12T13:53:07.115Z,20.13
2018-05-12T13:55:34.578Z,20.19
2018-05-12T13:58:01.431Z,20.07
2018-05-12T14:00:28.147Z,20.09
2018-05-12T14:02:54.755Z,20.32
2018-05-12T14:05:21.560Z,20.36
2018-05-12T14:07:49.338Z,20.35
2018-05-12T14:10:15.894Z,20.57
2018-05-12T14:12:42.871Z,20.56
2018-05-12T14:15:09.397Z,20.62
2018-05-12T14:17:36.434Z,20.78
2018-05-12T14:20:03.326Z,20.12
2018-05-12T14:22:30.323Z,19.77
2018-05-12T14:24:57.204Z,19.72
2018-05-12T14:27:24.187Z,19.76
2018-05-12T14:29:51.456Z,19.98
2018-05-12T14:32:18.624Z,20.22
2018-05-12T14:34:45.625Z,20.11
2018-05-12T14:37:12.507Z,20.11
2018-05-12T14:39:43.250Z,20.11
2018-05-12T14:42:10.103Z,20.16
2018-05-12T14:44:36.835Z,20.22
2018-05-12T14:47:03.702Z,20.18
2018-05-12T14:49:30.442Z,20.31
2018-05-12T14:51:57.665Z,20.55
2018-05-12T14:54:25.521Z,20.58
2018-05-12T14:56:53.193Z,20.59
2018-05-12T14:59:20.581Z,20.52
2018-05-12T15:01:48.444Z,20.66
2018-05-12T15:04:15.121Z,20.84
2018-05-12T15:06:42.660Z,20.91
2018-05-12T15:09:10.912Z,20.81
2018-05-12T15:11:41.216Z,20.85
2018-05-12T15:14:09.292Z,20.77
2018-05-12T15:16:37.177Z,20.51
2018-05-12T15:19:04.738Z,20.10
2018-05-12T15:21:32.018Z,19.57
2018-05-12T15:23:59.339Z,19.50
2018-05-12T15:26:26.610Z,19.38
2018-05-12T15:28:53.721Z,19.23
2018-05-12T15:31:20.377Z,19.26
2018-05-12T15:33:47.567Z,19.34
2018-05-12T15:36:14.809Z,19.23
2018-05-12T15:38:41.661Z,19.10
2018-05-12T15:41:08.702Z,19.06
2018-05-12T15:43:35.725Z,18.92
2018-05-12T15:46:02.766Z,18.69
2018-05-12T15:48:29.303Z,18.65
2018-05-12T15:50:56.434Z,18.47
2018-05-12T15:53:22.871Z,18.25
2018-05-12T15:55:50.812Z,18.29
2018-05-12T15:58:17.712Z,18.07
2018-05-12T16:00:45.402Z,17.93
2018-05-12T16:03:13.383Z,17.74
2018-05-12T16:05:40.730Z,17.68
2018-05-12T16:08:07.409Z,17.77
2018-05-12T16:10:34.581Z,17.72
2018-05-12T16:13:02.367Z,17.70
2018-05-12T16:15:29.077Z,17.67
2018-05-12T16:17:55.906Z,17.60
2018-05-12T16:20:24.559Z,17.54
2018-05-12T16:22:51.411Z,17.28
2018-05-12T16:25:18.946Z,17.28
2018-05-12T16:27:46.860Z,17.32
2018-05-12T16:30:18.278Z,17.19
2018-05-12T16:32:45.465Z,17.14
2018-05-12T16:35:14.119Z,17.04
2018-05-12T16:37:42.873Z,17.00
2018-05-12T16:40:11.466Z,16.86
2018-05-12T16:42:39.184Z,16.81
2018-05-12T16:45:06.123Z,16.74
2018-05-12T16:47:34.380Z,16.68
2018-05-12T16:50:04.174Z,16.60
2018-05-12T16:52:31.689Z,16.47
2018-05-12T16:54:58.914Z,16.56
2018-05-12T16:57:29.372Z,16.57
2018-05-12T16:59:56.969Z,16.33
2018-05-12T17:02:24.464Z,16.37
2018-05-12T17:04:51.454Z,16.33
2018-05-12T17:07:23.085Z,16.24
2018-05-12T17:09:53.348Z,16.09
2018-05-12T17:12:22.843Z,15.99
2018-05-12T17:14:49.726Z,15.90
2018-05-12T17:17:16.871Z,15.80
2018-05-12T17:19:43.508Z,15.80
2018-05-12T17:22:12.079Z,15.74
2018-05-12T17:24:38.734Z,15.65
2018-05-12T17:27:05.912Z,15.57
2018-05-12T17:29:32.680Z,15.48
2018-05-12T17:31:59.433Z,15.42
2018-05-12T17:34:27.578Z,15.43
2018-05-12T17:36:55.121Z,15.42
2018-05-12T17:39:22.135Z,15.40
2018-05-12T17:41:48.812Z,15.40
2018-05-12T17:44:16.690Z,15.24
2018-05-12T17:46:45.039Z,15.25
2018-05-12T17:49:11.765Z,15.15
2018-05-12T17:51:39.525Z,15.21
2018-05-12T17:54:09.183Z,15.16
2018-05-12T17:56:36.212Z,15.12
2018-05-12T17:59:03.270Z,15.05
2018-05-12T18:01:30.197Z,15.01
2018-05-12T18:03:57.268Z,14.96
2018-05-12T18:06:24.281Z,14.90
2018-05-12T18:08:51.211Z,14.86
2018-05-12T18:11:18.083Z,14.84
2018-05-12T18:13:44.904Z,14.79
2018-05-12T18:16:11.518Z,14.79
2018-05-12T18:18:39.234Z,14.78
2018-05-12T18:21:28.890Z,14.84
2018-05-12T18:23:55.762Z,14.82
2018-05-12T18:26:22.485Z,14.88
2018-05-12T18:28:49.178Z,14.81
2018-05-12T18:31:19.713Z,14.78
2018-05-12T18:33:47.971Z,14.79
2018-05-12T18:36:15.240Z,14.72
2018-05-12T18:38:42.326Z,14.66
2018-05-12T18:41:09.440Z,14.63
2018-05-12T18:43:36.155Z,14.52
2018-05-12T18:46:03.145Z,14.48
2018-05-12T18:48:30.037Z,14.38
2018-05-12T18:51:00.328Z,14.27
2018-05-12T18:53:27.505Z,14.21
2018-05-12T18:55:54.896Z,14.20
2018-05-12T18:58:22.414Z,14.13
2018-05-12T19:00:51.922Z,14.08
2018-05-12T19:03:20.212Z,14.07
2018-05-12T19:05:46.804Z,14.02
2018-05-12T19:08:13.797Z,13.98
2018-05-12T19:10:40.780Z,13.97
2018-05-12T19:13:08.558Z,13.92
2018-05-12T19:15:35.307Z,13.89
2018-05-12T19:18:02.340Z,13.82
2018-05-12T19:20:29.703Z,13.63
2018-05-12T19:22:57.668Z,13.66
2018-05-12T19:25:24.977Z,13.63
2018-05-12T19:27:54.096Z,13.63
2018-05-12T19:30:22.187Z,13.57
2018-05-12T19:32:49.845Z,13.50
2018-05-12T19:35:16.934Z,13.46
2018-05-12T19:37:43.771Z,13.58
2018-05-12T19:40:10.882Z,13.48
2018-05-12T19:42:38.118Z,13.37
2018-05-12T19:45:06.226Z,13.29
2018-05-12T19:47:33.509Z,13.23
2018-05-12T19:50:00.929Z,13.27
2018-05-12T19:52:29.114Z,13.23
2018-05-12T19:54:56.220Z,13.06
2018-05-12T19:57:23.392Z,13.04
2018-05-12T19:59:50.465Z,13.04
2018-05-12T20:02:17.498Z,13.07
2018-05-12T20:04:44.039Z,13.13
2018-05-12T20:07:12.011Z,13.20
2018-05-12T20:09:38.991Z,13.22
2018-05-12T20:12:06.922Z,13.12
2018-05-12T20:14:33.685Z,13.13
2018-05-12T20:17:01.219Z,13.13
2018-05-12T20:19:27.782Z,13.11
2018-05-12T20:22:01.546Z,13.11
2018-05-12T20:24:28.342Z,13.13
2018-05-12T20:26:55.718Z,13.17
2018-05-12T20:29:22.650Z,13.15
2018-05-12T20:31:50.223Z,13.15
2018-05-12T20:34:16.805Z,13.11
2018-05-12T20:36:43.315Z,13.08
2018-05-12T20:39:09.756Z,13.06
2018-05-12T20:41:53.453Z,13.08
2018-05-12T20:44:19.854Z,12.86
2018-05-12T20:46:46.878Z,12.76
2018-05-12T20:49:13.392Z,12.77
2018-05-12T20:51:47.633Z,12.75
2018-05-12T20:54:14.293Z,12.81
2018-05-12T20:56:40.708Z,12.77
2018-05-12T20:59:07.099Z,12.62
2018-05-12T21:01:33.762Z,12.42
2018-05-12T21:04:00.178Z,12.48
2018-05-12T21:06:26.633Z,12.50
2018-05-12T21:08:52.999Z,12.47
2018-05-12T21:11:19.537Z,12.43
2018-05-12T21:13:46.074Z,12.37
2018-05-12T21:16:12.427Z,12.28
2018-05-12T21:18:38.951Z,12.33
2018-05-12T21:21:06.448Z,12.29
2018-05-12T21:23:32.934Z,12.20
2018-05-12T21:25:59.372Z,12.37
2018-05-12T21:28:25.796Z,12.34
2018-05-12T21:30:52.423Z,12.27
2018-05-12T21:33:19.015Z,12.19
2018-05-12T21:35:45.511Z,12.17
2018-05-12T21:38:11.851Z,12.17
2018-05-12T21:40:39.300Z,12.24
2018-05-12T21:43:05.701Z,12.13
2018-05-12T21:45:32.118Z,12.06
2018-05-12T21:47:58.484Z,12.04
2018-05-12T21:50:24.846Z,12.02
2018-05-12T21:52:51.218Z,12.04
2018-05-12T21:55:17.587Z,12.01
2018-05-12T21:57:44.376Z,12.01
2018-05-12T22:00:10.850Z,12.00
2018-05-12T22:02:37.189Z,11.94
2018-05-12T22:05:03.942Z,11.94
2018-05-12T22:07:30.371Z,11.98
2018-05-12T22:09:56.918Z,11.97
2018-05-12T22:12:23.394Z,12.02
2018-05-12T22:14:49.758Z,12.06
2018-05-12T22:17:16.180Z,12.13
2018-05-12T22:19:42.611Z,12.05
2018-05-12T22:22:09.011Z,12.09
2018-05-12T22:24:35.383Z,12.11
2018-05-12T22:27:01.982Z,12.08
2018-05-12T22:29:28.369Z,12.13
2018-05-12T22:31:54.861Z,12.21
2018-05-12T22:34:21.259Z,12.22
2018-05-12T22:36:47.593Z,12.19
2018-05-12T22:39:13.943Z,12.19
2018-05-12T22:41:40.380Z,12.18
2018-05-12T22:44:06.773Z,12.11
2018-05-12T22:46:33.212Z,12.07
2018-05-12T22:48:59.566Z,12.05
2018-05-12T22:51:25.988Z,11.99
2018-05-12T22:53:52.537Z,12.04
2018-05-12T22:56:19.079Z,12.05
2018-05-12T22:58:45.468Z,11.97
2018-05-12T23:01:12.053Z,11.99
2018-05-12T23:03:38.422Z,11.96
2018-05-12T23:06:04.737Z,11.93
2018-05-12T23:08:31.108Z,11.98
2018-05-12T23:10:57.778Z,11.96
2018-05-12T23:13:24.151Z,11.96
2018-05-12T23:15:50.537Z,11.88
2018-05-12T23:18:16.916Z,11.77
2018-05-12T23:20:43.283Z,11.76
2018-05-12T23:23:09.589Z,11.71
2018-05-12T23:25:36.074Z,11.62
2018-05-12T23:28:02.617Z,11.62
2018-05-12T23:30:29.156Z,11.63
2018-05-12T23:32:55.508Z,11.67
2018-05-12T23:35:22.024Z,11.62
2018-05-12T23:37:48.451Z,11.62
2018-05-12T23:40:14.883Z,11.59
2018-05-12T23:42:41.233Z,11.53
2018-05-12T23:45:07.571Z,11.49
2018-05-12T23:47:33.940Z,11.47
2018-05-12T23:50:00.354Z,11.42
2018-05-12T23:52:27.061Z,11.38
2018-05-12T23:54:53.596Z,11.32
2018-05-12T23:57:19.990Z,11.30
2018-05-12T23:59:46.464Z,11.23
